Crane, WA

10:30 AM PST on February 20, 2017 (GMT -0800)
Eagles Nest at the Bluff | | Change Station
Active Advisory: Small Craft Advisory

Elev 200 ft 48.12 °N, 123.30 °W | Updated 3 seconds ago

Overcast
Overcast
45.0 °F
Feels Like 45 °F
N
3.0
Wind Variable Wind from North

Today
High -- | Low -- °F
--% Chance of Precip.
Yesterday
High -- | Low -- °F
Precip. -- in
Pressure 29.53 in
Visibility 10.0 miles
Clouds Overcast 1100 ft
Windchill 45 °F
Dew Point 41 °F
Humidity 86%
Rainfall 0.00 in
Snow Depth Not available.
7:10 AM 5:44 PM
Waning Crescent, 32% visible
SPECI KCLM 201802Z AUTO 00000KT 10SM OVC011 06/04 A2953 RMK AO2 T00560044
Pressure 29.53 in
Visibility 10.0 miles
Clouds Overcast 1100 ft
Windchill 45 °F
Dew Point 41 °F
Humidity 86%
Rainfall 0.00 in
Snow Depth Not available.
7:10 AM 5:44 PM
Waning Crescent, 32% visible
SPECI KCLM 201802Z AUTO 00000KT 10SM OVC011 06/04 A2953 RMK AO2 T00560044

Get Your Daily Forecast Email!

Thanks for signing up!

Be on the lookout for a verification email in your inbox.

You'll start receiving the daily forecast at 8 AM.

×

10-Day Weather Forecast

Almanac

Astronomy

Feb. 20, 2017 Rise Set
Actual Time
Civil Twilight
Nautical Twilight
Astronomical Twilight
Moon
Length of Visible Light
Length of Day
Tomorrow will be .
, % of the Moon is Illuminated

Today's Extremes

State Highs State Lows

Community

WunderPhotos

Upload Photos

1,962,540 photos uploaded!

WunderBlog® & News

Nearby

Air Quality

  Air Quality AQ Index Pollutant
Not available.

Snow Depth

Station Depth Elevation

Earthquake Activity

City Distance Mag. Time & Date
Minimum magnitude displayed is 2.5.

Coastal Water Temperatures

Place Temperature

Stations

Nearby Weather Stations

Station Location Temp. Windchill Dew Point Humidity Wind Precip. Elev Updated Type
                   

Watches & Warnings

Small Craft Advisory
Issued: 9:02 AM PST Feb. 20, 2017 – National Weather Service

... Small Craft Advisory in effect from 3 PM this afternoon to 3 am
PST Tuesday...

The National Weather Service in Seattle has issued a Small Craft
Advisory... which is in effect from 3 PM this afternoon to 3 am PST
Tuesday.

* Winds... west 15 to 25 knots.

* Wind waves... 2 to 4 feet.

Precautionary/preparedness actions...

A Small Craft Advisory means that wind speeds of 21 to 33 knots are
expected to produce hazardous wave conditions to small craft.
Inexperienced mariners... especially those operating smaller vessels
should avoid navigating in these conditions.